sensor_id;sensor_type;location;lat;lon;timestamp;P1;durP1;ratioP1;P2;durP2;ratioP2
23519;SDS011;11936;50.820;4.336;2023-04-06T00:02:05;15.75;;;10.75;;
23519;SDS011;11936;50.820;4.336;2023-04-06T00:04:31;17.23;;;11.77;;
23519;SDS011;11936;50.820;4.336;2023-04-06T00:06:59;19.20;;;11.70;;
23519;SDS011;11936;50.820;4.336;2023-04-06T00:09:25;18.15;;;11.48;;
23519;SDS011;11936;50.820;4.336;2023-04-06T00:11:51;17.05;;;11.27;;
23519;SDS011;11936;50.820;4.336;2023-04-06T00:14:17;18.38;;;11.60;;
23519;SDS011;11936;50.820;4.336;2023-04-06T00:16:42;20.58;;;12.15;;
23519;SDS011;11936;50.820;4.336;2023-04-06T00:19:08;22.55;;;12.68;;
23519;SDS011;11936;50.820;4.336;2023-04-06T00:21:34;20.75;;;11.65;;
23519;SDS011;11936;50.820;4.336;2023-04-06T00:23:59;18.27;;;11.82;;
23519;SDS011;11936;50.820;4.336;2023-04-06T00:26:25;19.70;;;12.13;;
23519;SDS011;11936;50.820;4.336;2023-04-06T00:28:51;18.83;;;11.55;;
23519;SDS011;11936;50.820;4.336;2023-04-06T00:31:17;20.88;;;12.00;;
23519;SDS011;11936;50.820;4.336;2023-04-06T00:33:43;18.60;;;11.73;;
23519;SDS011;11936;50.820;4.336;2023-04-06T00:36:08;19.20;;;10.57;;
23519;SDS011;11936;50.820;4.336;2023-04-06T00:38:34;21.23;;;11.35;;
23519;SDS011;11936;50.820;4.336;2023-04-06T00:41:00;20.27;;;12.00;;
23519;SDS011;11936;50.820;4.336;2023-04-06T00:43:25;20.48;;;11.82;;
23519;SDS011;11936;50.820;4.336;2023-04-06T00:45:51;18.33;;;11.88;;
23519;SDS011;11936;50.820;4.336;2023-04-06T00:48:17;20.23;;;11.50;;
23519;SDS011;11936;50.820;4.336;2023-04-06T00:50:43;21.80;;;12.45;;
23519;SDS011;11936;50.820;4.336;2023-04-06T00:53:08;17.13;;;11.45;;
23519;SDS011;11936;50.820;4.336;2023-04-06T00:55:34;18.70;;;11.98;;
23519;SDS011;11936;50.820;4.336;2023-04-06T00:58:01;20.70;;;12.55;;
23519;SDS011;11936;50.820;4.336;2023-04-06T01:00:27;21.13;;;12.80;;
23519;SDS011;11936;50.820;4.336;2023-04-06T01:02:53;18.83;;;12.40;;
23519;SDS011;11936;50.820;4.336;2023-04-06T01:05:21;19.80;;;11.55;;
23519;SDS011;11936;50.820;4.336;2023-04-06T01:07:47;20.27;;;12.70;;
23519;SDS011;11936;50.820;4.336;2023-04-06T01:10:22;19.73;;;12.25;;
23519;SDS011;11936;50.820;4.336;2023-04-06T01:12:48;19.90;;;12.45;;
23519;SDS011;11936;50.820;4.336;2023-04-06T01:15:14;18.27;;;12.18;;
23519;SDS011;11936;50.820;4.336;2023-04-06T01:17:40;18.02;;;13.38;;
23519;SDS011;11936;50.820;4.336;2023-04-06T01:20:06;20.85;;;11.98;;
23519;SDS011;11936;50.820;4.336;2023-04-06T01:22:32;23.13;;;11.95;;
23519;SDS011;11936;50.820;4.336;2023-04-06T01:24:58;19.90;;;12.65;;
23519;SDS011;11936;50.820;4.336;2023-04-06T01:27:23;21.13;;;12.02;;
23519;SDS011;11936;50.820;4.336;2023-04-06T01:29:51;20.30;;;12.32;;
23519;SDS011;11936;50.820;4.336;2023-04-06T01:32:17;19.55;;;13.23;;
23519;SDS011;11936;50.820;4.336;2023-04-06T01:34:42;17.58;;;12.23;;
23519;SDS011;11936;50.820;4.336;2023-04-06T01:37:08;23.77;;;13.07;;
23519;SDS011;11936;50.820;4.336;2023-04-06T01:39:34;22.63;;;13.25;;
23519;SDS011;11936;50.820;4.336;2023-04-06T01:41:59;22.70;;;12.95;;
23519;SDS011;11936;50.820;4.336;2023-04-06T01:44:25;20.10;;;12.55;;
23519;SDS011;11936;50.820;4.336;2023-04-06T01:46:53;25.17;;;14.23;;
23519;SDS011;11936;50.820;4.336;2023-04-06T01:49:19;17.77;;;12.93;;
23519;SDS011;11936;50.820;4.336;2023-04-06T01:51:45;17.75;;;12.57;;
23519;SDS011;11936;50.820;4.336;2023-04-06T01:54:10;21.85;;;13.27;;
23519;SDS011;11936;50.820;4.336;2023-04-06T01:56:36;20.60;;;13.23;;
23519;SDS011;11936;50.820;4.336;2023-04-06T01:59:02;20.35;;;13.13;;
23519;SDS011;11936;50.820;4.336;2023-04-06T02:01:28;23.73;;;13.40;;
23519;SDS011;11936;50.820;4.336;2023-04-06T02:03:53;22.20;;;13.45;;
23519;SDS011;11936;50.820;4.336;2023-04-06T02:06:19;21.58;;;13.50;;
23519;SDS011;11936;50.820;4.336;2023-04-06T02:08:45;19.90;;;12.68;;
23519;SDS011;11936;50.820;4.336;2023-04-06T02:11:11;21.17;;;13.20;;
23519;SDS011;11936;50.820;4.336;2023-04-06T02:13:36;18.35;;;11.98;;
23519;SDS011;11936;50.820;4.336;2023-04-06T02:16:02;20.77;;;12.98;;
23519;SDS011;11936;50.820;4.336;2023-04-06T02:18:29;19.73;;;12.52;;
23519;SDS011;11936;50.820;4.336;2023-04-06T02:20:55;22.15;;;13.00;;
23519;SDS011;11936;50.820;4.336;2023-04-06T02:23:24;24.20;;;13.68;;
23519;SDS011;11936;50.820;4.336;2023-04-06T02:25:50;21.55;;;12.77;;
23519;SDS011;11936;50.820;4.336;2023-04-06T02:28:15;21.15;;;12.93;;
23519;SDS011;11936;50.820;4.336;2023-04-06T02:30:41;20.95;;;13.25;;
23519;SDS011;11936;50.820;4.336;2023-04-06T02:33:06;22.35;;;13.20;;
23519;SDS011;11936;50.820;4.336;2023-04-06T02:35:32;25.40;;;13.10;;
23519;SDS011;11936;50.820;4.336;2023-04-06T02:37:58;23.17;;;12.50;;
23519;SDS011;11936;50.820;4.336;2023-04-06T02:40:23;19.83;;;12.57;;
23519;SDS011;11936;50.820;4.336;2023-04-06T02:42:49;19.35;;;12.52;;
23519;SDS011;11936;50.820;4.336;2023-04-06T02:45:15;23.23;;;13.30;;
23519;SDS011;11936;50.820;4.336;2023-04-06T02:47:41;17.83;;;12.70;;
23519;SDS011;11936;50.820;4.336;2023-04-06T02:50:07;23.13;;;13.25;;
23519;SDS011;11936;50.820;4.336;2023-04-06T02:52:33;23.65;;;13.07;;
23519;SDS011;11936;50.820;4.336;2023-04-06T02:54:59;23.17;;;11.95;;
23519;SDS011;11936;50.820;4.336;2023-04-06T02:57:24;21.27;;;12.52;;
23519;SDS011;11936;50.820;4.336;2023-04-06T02:59:50;21.23;;;12.55;;
23519;SDS011;11936;50.820;4.336;2023-04-06T03:02:15;19.25;;;11.60;;
23519;SDS011;11936;50.820;4.336;2023-04-06T03:04:41;19.35;;;12.52;;
23519;SDS011;11936;50.820;4.336;2023-04-06T03:07:07;19.15;;;12.88;;
23519;SDS011;11936;50.820;4.336;2023-04-06T03:09:33;19.33;;;12.15;;
23519;SDS011;11936;50.820;4.336;2023-04-06T03:12:01;20.95;;;13.65;;
23519;SDS011;11936;50.820;4.336;2023-04-06T03:14:27;23.50;;;13.30;;
23519;SDS011;11936;50.820;4.336;2023-04-06T03:16:53;17.35;;;12.13;;
23519;SDS011;11936;50.820;4.336;2023-04-06T03:19:18;19.30;;;12.07;;
23519;SDS011;11936;50.820;4.336;2023-04-06T03:21:44;17.17;;;11.93;;
23519;SDS011;11936;50.820;4.336;2023-04-06T03:24:10;20.40;;;12.02;;
23519;SDS011;11936;50.820;4.336;2023-04-06T03:26:38;17.25;;;11.57;;
23519;SDS011;11936;50.820;4.336;2023-04-06T03:29:04;21.65;;;12.48;;
23519;SDS011;11936;50.820;4.336;2023-04-06T03:31:30;17.75;;;13.00;;
23519;SDS011;11936;50.820;4.336;2023-04-06T03:33:56;19.85;;;11.60;;
23519;SDS011;11936;50.820;4.336;2023-04-06T03:36:21;21.60;;;12.02;;
23519;SDS011;11936;50.820;4.336;2023-04-06T03:38:47;24.92;;;13.48;;
23519;SDS011;11936;50.820;4.336;2023-04-06T03:41:12;19.25;;;12.68;;
23519;SDS011;11936;50.820;4.336;2023-04-06T03:43:38;18.15;;;12.25;;
23519;SDS011;11936;50.820;4.336;2023-04-06T03:46:04;23.02;;;12.13;;
23519;SDS011;11936;50.820;4.336;2023-04-06T03:48:29;18.52;;;12.40;;
23519;SDS011;11936;50.820;4.336;2023-04-06T03:50:55;18.30;;;12.55;;
23519;SDS011;11936;50.820;4.336;2023-04-06T03:55:50;21.42;;;12.07;;
23519;SDS011;11936;50.820;4.336;2023-04-06T03:58:15;20.58;;;12.52;;
23519;SDS011;11936;50.820;4.336;2023-04-06T04:00:41;19.48;;;12.18;;
23519;SDS011;11936;50.820;4.336;2023-04-06T04:03:06;18.02;;;12.90;;
23519;SDS011;11936;50.820;4.336;2023-04-06T04:05:32;17.92;;;12.43;;
23519;SDS011;11936;50.820;4.336;2023-04-06T04:07:58;20.60;;;12.93;;
23519;SDS011;11936;50.820;4.336;2023-04-06T04:10:23;21.73;;;12.90;;
23519;SDS011;11936;50.820;4.336;2023-04-06T04:12:49;17.33;;;12.65;;
23519;SDS011;11936;50.820;4.336;2023-04-06T04:15:15;17.70;;;12.35;;
23519;SDS011;11936;50.820;4.336;2023-04-06T04:17:40;17.23;;;11.35;;
23519;SDS011;11936;50.820;4.336;2023-04-06T04:20:06;20.17;;;12.77;;
23519;SDS011;11936;50.820;4.336;2023-04-06T04:22:32;22.00;;;12.43;;
23519;SDS011;11936;50.820;4.336;2023-04-06T04:24:58;20.98;;;12.98;;
23519;SDS011;11936;50.820;4.336;2023-04-06T04:27:24;17.73;;;12.20;;
23519;SDS011;11936;50.820;4.336;2023-04-06T04:29:50;20.48;;;12.73;;
23519;SDS011;11936;50.820;4.336;2023-04-06T04:32:15;27.13;;;13.07;;
23519;SDS011;11936;50.820;4.336;2023-04-06T04:34:41;26.42;;;13.27;;
23519;SDS011;11936;50.820;4.336;2023-04-06T04:37:07;19.40;;;12.40;;
23519;SDS011;11936;50.820;4.336;2023-04-06T04:39:32;26.35;;;12.20;;
23519;SDS011;11936;50.820;4.336;2023-04-06T04:41:58;25.27;;;13.60;;
23519;SDS011;11936;50.820;4.336;2023-04-06T04:44:23;25.02;;;13.23;;
23519;SDS011;11936;50.820;4.336;2023-04-06T04:46:49;21.67;;;14.00;;
23519;SDS011;11936;50.820;4.336;2023-04-06T04:49:15;22.55;;;13.35;;
23519;SDS011;11936;50.820;4.336;2023-04-06T04:51:40;25.52;;;13.35;;
23519;SDS011;11936;50.820;4.336;2023-04-06T04:54:06;21.92;;;14.70;;
23519;SDS011;11936;50.820;4.336;2023-04-06T04:56:31;21.33;;;13.63;;
23519;SDS011;11936;50.820;4.336;2023-04-06T04:58:57;19.63;;;13.13;;
23519;SDS011;11936;50.820;4.336;2023-04-06T05:01:23;23.15;;;13.55;;
23519;SDS011;11936;50.820;4.336;2023-04-06T05:03:48;21.77;;;12.98;;
23519;SDS011;11936;50.820;4.336;2023-04-06T05:06:14;25.25;;;14.27;;
23519;SDS011;11936;50.820;4.336;2023-04-06T05:08:40;20.83;;;13.65;;
23519;SDS011;11936;50.820;4.336;2023-04-06T05:11:06;22.52;;;14.15;;
23519;SDS011;11936;50.820;4.336;2023-04-06T05:13:32;24.13;;;13.52;;
23519;SDS011;11936;50.820;4.336;2023-04-06T05:15:58;24.92;;;14.00;;
23519;SDS011;11936;50.820;4.336;2023-04-06T05:18:23;23.38;;;13.48;;
23519;SDS011;11936;50.820;4.336;2023-04-06T05:20:49;30.42;;;14.05;;
23519;SDS011;11936;50.820;4.336;2023-04-06T05:23:16;23.98;;;13.95;;
23519;SDS011;11936;50.820;4.336;2023-04-06T05:25:42;24.17;;;13.75;;
23519;SDS011;11936;50.820;4.336;2023-04-06T05:28:07;24.25;;;14.50;;
23519;SDS011;11936;50.820;4.336;2023-04-06T05:30:33;24.80;;;14.20;;
23519;SDS011;11936;50.820;4.336;2023-04-06T05:33:00;27.77;;;15.07;;
23519;SDS011;11936;50.820;4.336;2023-04-06T05:35:26;28.33;;;15.45;;
23519;SDS011;11936;50.820;4.336;2023-04-06T05:37:52;24.98;;;15.00;;
23519;SDS011;11936;50.820;4.336;2023-04-06T05:40:17;34.38;;;15.02;;
23519;SDS011;11936;50.820;4.336;2023-04-06T05:42:43;23.27;;;13.82;;
23519;SDS011;11936;50.820;4.336;2023-04-06T05:45:09;29.02;;;14.75;;
23519;SDS011;11936;50.820;4.336;2023-04-06T05:47:36;28.80;;;15.20;;
23519;SDS011;11936;50.820;4.336;2023-04-06T05:50:02;32.28;;;14.25;;
23519;SDS011;11936;50.820;4.336;2023-04-06T05:52:28;28.58;;;15.32;;
23519;SDS011;11936;50.820;4.336;2023-04-06T05:54:54;29.38;;;15.50;;
23519;SDS011;11936;50.820;4.336;2023-04-06T05:57:19;27.08;;;16.63;;
23519;SDS011;11936;50.820;4.336;2023-04-06T05:59:45;30.95;;;15.80;;
23519;SDS011;11936;50.820;4.336;2023-04-06T06:02:11;34.60;;;15.70;;
23519;SDS011;11936;50.820;4.336;2023-04-06T06:04:36;29.08;;;15.73;;
23519;SDS011;11936;50.820;4.336;2023-04-06T06:07:02;34.15;;;16.38;;
23519;SDS011;11936;50.820;4.336;2023-04-06T06:09:28;37.47;;;15.60;;
23519;SDS011;11936;50.820;4.336;2023-04-06T06:11:54;31.00;;;14.75;;
23519;SDS011;11936;50.820;4.336;2023-04-06T06:14:19;34.05;;;14.57;;
23519;SDS011;11936;50.820;4.336;2023-04-06T06:16:46;28.60;;;15.00;;
23519;SDS011;11936;50.820;4.336;2023-04-06T06:19:12;26.65;;;15.57;;
23519;SDS011;11936;50.820;4.336;2023-04-06T06:21:38;32.95;;;15.48;;
23519;SDS011;11936;50.820;4.336;2023-04-06T06:24:04;31.42;;;15.18;;
23519;SDS011;11936;50.820;4.336;2023-04-06T06:26:30;27.60;;;15.20;;
23519;SDS011;11936;50.820;4.336;2023-04-06T06:28:56;23.58;;;15.52;;
23519;SDS011;11936;50.820;4.336;2023-04-06T06:31:22;30.30;;;15.68;;
23519;SDS011;11936;50.820;4.336;2023-04-06T06:33:48;28.58;;;14.77;;
23519;SDS011;11936;50.820;4.336;2023-04-06T06:36:17;29.55;;;15.32;;
23519;SDS011;11936;50.820;4.336;2023-04-06T06:38:43;40.00;;;16.88;;
23519;SDS011;11936;50.820;4.336;2023-04-06T06:41:10;24.95;;;15.45;;
23519;SDS011;11936;50.820;4.336;2023-04-06T06:43:38;24.15;;;15.52;;
23519;SDS011;11936;50.820;4.336;2023-04-06T06:46:04;26.30;;;15.70;;
23519;SDS011;11936;50.820;4.336;2023-04-06T06:48:30;25.80;;;16.33;;
23519;SDS011;11936;50.820;4.336;2023-04-06T06:50:56;21.65;;;15.35;;
23519;SDS011;11936;50.820;4.336;2023-04-06T06:53:22;27.83;;;15.00;;
23519;SDS011;11936;50.820;4.336;2023-04-06T06:55:49;32.72;;;16.30;;
23519;SDS011;11936;50.820;4.336;2023-04-06T06:58:14;26.15;;;16.45;;
23519;SDS011;11936;50.820;4.336;2023-04-06T07:00:42;26.37;;;17.37;;
23519;SDS011;11936;50.820;4.336;2023-04-06T07:03:08;27.55;;;16.25;;
23519;SDS011;11936;50.820;4.336;2023-04-06T07:05:34;28.83;;;15.60;;
23519;SDS011;11936;50.820;4.336;2023-04-06T07:08:00;26.67;;;16.83;;
23519;SDS011;11936;50.820;4.336;2023-04-06T07:10:25;27.50;;;15.65;;
23519;SDS011;11936;50.820;4.336;2023-04-06T07:12:51;23.77;;;15.45;;
23519;SDS011;11936;50.820;4.336;2023-04-06T07:15:17;24.30;;;15.85;;
23519;SDS011;11936;50.820;4.336;2023-04-06T07:17:43;25.25;;;15.40;;
23519;SDS011;11936;50.820;4.336;2023-04-06T07:20:10;22.13;;;15.10;;
23519;SDS011;11936;50.820;4.336;2023-04-06T07:22:37;26.13;;;14.88;;
23519;SDS011;11936;50.820;4.336;2023-04-06T07:25:03;19.33;;;12.30;;
23519;SDS011;11936;50.820;4.336;2023-04-06T07:27:29;16.15;;;12.75;;
23519;SDS011;11936;50.820;4.336;2023-04-06T07:29:55;18.60;;;12.55;;
23519;SDS011;11936;50.820;4.336;2023-04-06T07:32:21;20.60;;;12.45;;
23519;SDS011;11936;50.820;4.336;2023-04-06T07:34:47;18.42;;;12.20;;
23519;SDS011;11936;50.820;4.336;2023-04-06T07:37:12;23.52;;;12.43;;
23519;SDS011;11936;50.820;4.336;2023-04-06T07:39:38;22.90;;;10.27;;
23519;SDS011;11936;50.820;4.336;2023-04-06T07:42:03;15.55;;;11.02;;
23519;SDS011;11936;50.820;4.336;2023-04-06T07:44:29;15.70;;;9.68;;
23519;SDS011;11936;50.820;4.336;2023-04-06T07:46:55;14.93;;;10.70;;
23519;SDS011;11936;50.820;4.336;2023-04-06T07:49:21;15.05;;;10.38;;
23519;SDS011;11936;50.820;4.336;2023-04-06T07:51:47;16.45;;;9.95;;
23519;SDS011;11936;50.820;4.336;2023-04-06T07:54:13;14.63;;;10.30;;
23519;SDS011;11936;50.820;4.336;2023-04-06T07:56:39;16.73;;;10.50;;
23519;SDS011;11936;50.820;4.336;2023-04-06T07:59:05;16.60;;;9.93;;
23519;SDS011;11936;50.820;4.336;2023-04-06T08:01:31;15.43;;;9.82;;
23519;SDS011;11936;50.820;4.336;2023-04-06T08:03:56;15.23;;;9.23;;
23519;SDS011;11936;50.820;4.336;2023-04-06T08:06:23;12.10;;;8.02;;
23519;SDS011;11936;50.820;4.336;2023-04-06T08:08:48;12.45;;;8.38;;
23519;SDS011;11936;50.820;4.336;2023-04-06T08:11:14;14.50;;;9.68;;
23519;SDS011;11936;50.820;4.336;2023-04-06T08:13:40;11.55;;;9.00;;
23519;SDS011;11936;50.820;4.336;2023-04-06T08:16:06;15.30;;;10.10;;
23519;SDS011;11936;50.820;4.336;2023-04-06T08:18:32;12.98;;;9.55;;
23519;SDS011;11936;50.820;4.336;2023-04-06T08:20:58;16.80;;;10.73;;
23519;SDS011;11936;50.820;4.336;2023-04-06T08:23:24;16.60;;;9.80;;
23519;SDS011;11936;50.820;4.336;2023-04-06T08:25:52;13.23;;;9.43;;
23519;SDS011;11936;50.820;4.336;2023-04-06T08:28:19;13.40;;;8.98;;
23519;SDS011;11936;50.820;4.336;2023-04-06T08:30:46;14.57;;;8.38;;
23519;SDS011;11936;50.820;4.336;2023-04-06T08:33:12;12.65;;;8.95;;
23519;SDS011;11936;50.820;4.336;2023-04-06T08:35:38;12.18;;;7.97;;
23519;SDS011;11936;50.820;4.336;2023-04-06T08:38:03;14.63;;;7.97;;
23519;SDS011;11936;50.820;4.336;2023-04-06T08:40:29;12.80;;;8.50;;
23519;SDS011;11936;50.820;4.336;2023-04-06T08:43:00;16.52;;;8.32;;
23519;SDS011;11936;50.820;4.336;2023-04-06T08:45:28;14.75;;;8.73;;
23519;SDS011;11936;50.820;4.336;2023-04-06T08:47:55;13.60;;;9.02;;
23519;SDS011;11936;50.820;4.336;2023-04-06T08:50:27;13.75;;;8.73;;
23519;SDS011;11936;50.820;4.336;2023-04-06T08:52:57;10.23;;;8.02;;
23519;SDS011;11936;50.820;4.336;2023-04-06T08:55:26;12.63;;;8.57;;
23519;SDS011;11936;50.820;4.336;2023-04-06T08:57:52;18.85;;;9.77;;
23519;SDS011;11936;50.820;4.336;2023-04-06T09:00:20;16.95;;;9.85;;
23519;SDS011;11936;50.820;4.336;2023-04-06T09:02:46;17.67;;;10.68;;
23519;SDS011;11936;50.820;4.336;2023-04-06T09:05:14;17.02;;;9.18;;
23519;SDS011;11936;50.820;4.336;2023-04-06T09:07:40;13.27;;;9.35;;
23519;SDS011;11936;50.820;4.336;2023-04-06T09:10:06;15.38;;;9.52;;
23519;SDS011;11936;50.820;4.336;2023-04-06T09:12:32;17.52;;;9.18;;
23519;SDS011;11936;50.820;4.336;2023-04-06T09:15:00;13.30;;;9.05;;
23519;SDS011;11936;50.820;4.336;2023-04-06T09:17:27;14.48;;;9.15;;
23519;SDS011;11936;50.820;4.336;2023-04-06T09:19:55;13.00;;;9.00;;
23519;SDS011;11936;50.820;4.336;2023-04-06T09:22:21;13.93;;;9.65;;
23519;SDS011;11936;50.820;4.336;2023-04-06T09:27:17;20.30;;;9.98;;
23519;SDS011;11936;50.820;4.336;2023-04-06T09:29:43;13.90;;;8.52;;
23519;SDS011;11936;50.820;4.336;2023-04-06T09:32:09;14.00;;;8.57;;
23519;SDS011;11936;50.820;4.336;2023-04-06T09:34:41;17.75;;;8.98;;
23519;SDS011;11936;50.820;4.336;2023-04-06T09:37:14;13.05;;;8.10;;
23519;SDS011;11936;50.820;4.336;2023-04-06T09:39:44;17.10;;;8.40;;
23519;SDS011;11936;50.820;4.336;2023-04-06T09:42:23;10.27;;;7.72;;
23519;SDS011;11936;50.820;4.336;2023-04-06T09:44:50;13.05;;;8.27;;
23519;SDS011;11936;50.820;4.336;2023-04-06T09:47:16;11.95;;;7.35;;
23519;SDS011;11936;50.820;4.336;2023-04-06T09:49:42;10.80;;;7.60;;
23519;SDS011;11936;50.820;4.336;2023-04-06T09:52:10;10.80;;;7.53;;
23519;SDS011;11936;50.820;4.336;2023-04-06T09:54:37;10.27;;;7.35;;
23519;SDS011;11936;50.820;4.336;2023-04-06T09:59:57;13.40;;;8.18;;
23519;SDS011;11936;50.820;4.336;2023-04-06T10:05:37;11.85;;;8.15;;
23519;SDS011;11936;50.820;4.336;2023-04-06T10:08:11;10.13;;;7.13;;
23519;SDS011;11936;50.820;4.336;2023-04-06T10:10:38;10.60;;;7.70;;
23519;SDS011;11936;50.820;4.336;2023-04-06T10:13:04;11.25;;;7.90;;
23519;SDS011;11936;50.820;4.336;2023-04-06T10:15:31;11.10;;;7.72;;
23519;SDS011;11936;50.820;4.336;2023-04-06T10:18:00;9.13;;;7.00;;
23519;SDS011;11936;50.820;4.336;2023-04-06T10:23:10;12.10;;;7.20;;
23519;SDS011;11936;50.820;4.336;2023-04-06T10:25:51;10.80;;;7.90;;
23519;SDS011;11936;50.820;4.336;2023-04-06T10:28:18;13.70;;;8.43;;
23519;SDS011;11936;50.820;4.336;2023-04-06T10:30:45;11.75;;;7.43;;
23519;SDS011;11936;50.820;4.336;2023-04-06T10:33:13;10.70;;;8.35;;
23519;SDS011;11936;50.820;4.336;2023-04-06T10:35:40;10.57;;;8.13;;
23519;SDS011;11936;50.820;4.336;2023-04-06T10:38:06;9.07;;;7.68;;
23519;SDS011;11936;50.820;4.336;2023-04-06T10:40:34;10.20;;;7.85;;
23519;SDS011;11936;50.820;4.336;2023-04-06T10:43:18;11.02;;;8.23;;
23519;SDS011;11936;50.820;4.336;2023-04-06T10:45:45;9.55;;;7.15;;
23519;SDS011;11936;50.820;4.336;2023-04-06T10:48:22;10.38;;;8.38;;
23519;SDS011;11936;50.820;4.336;2023-04-06T10:50:49;10.00;;;7.85;;
23519;SDS011;11936;50.820;4.336;2023-04-06T10:53:22;11.55;;;7.82;;
23519;SDS011;11936;50.820;4.336;2023-04-06T10:55:55;10.88;;;7.95;;
23519;SDS011;11936;50.820;4.336;2023-04-06T10:58:28;12.68;;;7.93;;
23519;SDS011;11936;50.820;4.336;2023-04-06T11:00:55;13.68;;;8.30;;
23519;SDS011;11936;50.820;4.336;2023-04-06T11:03:20;11.15;;;8.40;;
23519;SDS011;11936;50.820;4.336;2023-04-06T11:05:50;11.68;;;8.15;;
23519;SDS011;11936;50.820;4.336;2023-04-06T11:08:32;12.05;;;8.82;;
23519;SDS011;11936;50.820;4.336;2023-04-06T11:11:08;13.02;;;9.10;;
23519;SDS011;11936;50.820;4.336;2023-04-06T11:16:34;14.23;;;9.45;;
23519;SDS011;11936;50.820;4.336;2023-04-06T11:19:01;13.52;;;9.38;;
23519;SDS011;11936;50.820;4.336;2023-04-06T11:24:08;10.57;;;8.52;;
23519;SDS011;11936;50.820;4.336;2023-04-06T11:26:48;10.55;;;8.35;;
23519;SDS011;11936;50.820;4.336;2023-04-06T11:29:20;10.35;;;8.13;;
23519;SDS011;11936;50.820;4.336;2023-04-06T11:32:00;10.18;;;8.63;;
23519;SDS011;11936;50.820;4.336;2023-04-06T11:34:35;13.57;;;9.38;;
23519;SDS011;11936;50.820;4.336;2023-04-06T11:37:03;11.80;;;9.15;;
23519;SDS011;11936;50.820;4.336;2023-04-06T11:39:39;15.20;;;10.07;;
23519;SDS011;11936;50.820;4.336;2023-04-06T11:42:24;12.53;;;9.33;;
23519;SDS011;11936;50.820;4.336;2023-04-06T11:44:54;11.95;;;9.15;;
23519;SDS011;11936;50.820;4.336;2023-04-06T11:47:34;10.60;;;8.82;;
23519;SDS011;11936;50.820;4.336;2023-04-06T11:50:09;12.88;;;9.43;;
23519;SDS011;11936;50.820;4.336;2023-04-06T11:52:39;13.82;;;9.23;;
23519;SDS011;11936;50.820;4.336;2023-04-06T11:55:12;12.35;;;8.77;;
23519;SDS011;11936;50.820;4.336;2023-04-06T11:57:43;13.80;;;9.75;;
23519;SDS011;11936;50.820;4.336;2023-04-06T12:00:10;14.52;;;9.80;;
23519;SDS011;11936;50.820;4.336;2023-04-06T12:02:39;12.40;;;8.65;;
23519;SDS011;11936;50.820;4.336;2023-04-06T12:05:05;14.30;;;9.82;;
23519;SDS011;11936;50.820;4.336;2023-04-06T12:07:32;14.20;;;9.57;;
23519;SDS011;11936;50.820;4.336;2023-04-06T12:09:58;13.98;;;9.55;;
23519;SDS011;11936;50.820;4.336;2023-04-06T12:12:24;14.52;;;9.73;;
23519;SDS011;11936;50.820;4.336;2023-04-06T12:14:50;12.65;;;9.60;;
23519;SDS011;11936;50.820;4.336;2023-04-06T12:17:16;12.27;;;9.45;;
23519;SDS011;11936;50.820;4.336;2023-04-06T12:19:43;13.07;;;9.13;;
23519;SDS011;11936;50.820;4.336;2023-04-06T12:22:08;11.90;;;8.40;;
23519;SDS011;11936;50.820;4.336;2023-04-06T12:24:34;13.73;;;9.40;;
23519;SDS011;11936;50.820;4.336;2023-04-06T12:27:00;11.27;;;7.75;;
23519;SDS011;11936;50.820;4.336;2023-04-06T12:29:29;13.23;;;8.88;;
23519;SDS011;11936;50.820;4.336;2023-04-06T12:31:54;13.35;;;9.38;;
23519;SDS011;11936;50.820;4.336;2023-04-06T12:34:21;13.77;;;9.00;;
23519;SDS011;11936;50.820;4.336;2023-04-06T12:36:47;11.45;;;9.05;;
23519;SDS011;11936;50.820;4.336;2023-04-06T12:39:12;10.45;;;8.65;;
23519;SDS011;11936;50.820;4.336;2023-04-06T12:41:38;10.98;;;8.57;;
23519;SDS011;11936;50.820;4.336;2023-04-06T12:44:06;11.75;;;8.60;;
23519;SDS011;11936;50.820;4.336;2023-04-06T12:46:32;11.70;;;8.82;;
23519;SDS011;11936;50.820;4.336;2023-04-06T12:48:58;11.35;;;8.57;;
23519;SDS011;11936;50.820;4.336;2023-04-06T12:51:24;12.50;;;8.80;;
23519;SDS011;11936;50.820;4.336;2023-04-06T12:53:52;14.57;;;9.40;;
23519;SDS011;11936;50.820;4.336;2023-04-06T12:56:18;11.30;;;8.57;;
23519;SDS011;11936;50.820;4.336;2023-04-06T12:58:46;12.38;;;9.45;;
23519;SDS011;11936;50.820;4.336;2023-04-06T13:01:12;13.88;;;10.05;;
23519;SDS011;11936;50.820;4.336;2023-04-06T13:03:38;11.25;;;9.10;;
23519;SDS011;11936;50.820;4.336;2023-04-06T13:06:05;13.07;;;9.43;;
23519;SDS011;11936;50.820;4.336;2023-04-06T13:08:30;19.60;;;10.23;;
23519;SDS011;11936;50.820;4.336;2023-04-06T13:10:56;21.90;;;12.40;;
23519;SDS011;11936;50.820;4.336;2023-04-06T13:13:22;14.95;;;9.80;;
23519;SDS011;11936;50.820;4.336;2023-04-06T13:15:59;18.08;;;9.95;;
23519;SDS011;11936;50.820;4.336;2023-04-06T13:18:29;12.70;;;9.68;;
23519;SDS011;11936;50.820;4.336;2023-04-06T13:20:55;12.13;;;9.60;;
23519;SDS011;11936;50.820;4.336;2023-04-06T13:23:21;12.73;;;9.35;;
23519;SDS011;11936;50.820;4.336;2023-04-06T13:25:48;16.20;;;10.07;;
23519;SDS011;11936;50.820;4.336;2023-04-06T13:28:21;16.17;;;9.98;;
23519;SDS011;11936;50.820;4.336;2023-04-06T13:30:47;11.13;;;8.63;;
23519;SDS011;11936;50.820;4.336;2023-04-06T13:33:13;15.20;;;9.68;;
23519;SDS011;11936;50.820;4.336;2023-04-06T13:35:39;12.75;;;8.70;;
23519;SDS011;11936;50.820;4.336;2023-04-06T13:38:09;13.02;;;9.75;;
23519;SDS011;11936;50.820;4.336;2023-04-06T13:40:35;12.27;;;9.23;;
23519;SDS011;11936;50.820;4.336;2023-04-06T13:43:06;13.70;;;10.30;;
23519;SDS011;11936;50.820;4.336;2023-04-06T13:45:33;13.80;;;9.60;;
23519;SDS011;11936;50.820;4.336;2023-04-06T13:47:58;13.23;;;9.82;;
23519;SDS011;11936;50.820;4.336;2023-04-06T13:50:27;12.15;;;9.70;;
23519;SDS011;11936;50.820;4.336;2023-04-06T13:52:54;10.95;;;9.00;;
23519;SDS011;11936;50.820;4.336;2023-04-06T13:55:21;10.95;;;8.88;;
23519;SDS011;11936;50.820;4.336;2023-04-06T13:57:52;14.27;;;9.75;;
23519;SDS011;11936;50.820;4.336;2023-04-06T14:00:17;13.77;;;9.90;;
23519;SDS011;11936;50.820;4.336;2023-04-06T14:02:44;13.63;;;9.77;;
23519;SDS011;11936;50.820;4.336;2023-04-06T14:05:09;13.50;;;9.10;;
23519;SDS011;11936;50.820;4.336;2023-04-06T14:07:35;12.85;;;9.82;;
23519;SDS011;11936;50.820;4.336;2023-04-06T14:10:01;14.80;;;9.07;;
23519;SDS011;11936;50.820;4.336;2023-04-06T14:12:27;11.70;;;8.60;;
23519;SDS011;11936;50.820;4.336;2023-04-06T14:14:53;13.95;;;8.85;;
23519;SDS011;11936;50.820;4.336;2023-04-06T14:17:18;12.43;;;9.63;;
23519;SDS011;11936;50.820;4.336;2023-04-06T14:19:44;13.85;;;10.00;;
23519;SDS011;11936;50.820;4.336;2023-04-06T14:22:09;11.55;;;10.18;;
23519;SDS011;11936;50.820;4.336;2023-04-06T14:24:35;12.20;;;8.65;;
23519;SDS011;11936;50.820;4.336;2023-04-06T14:27:01;11.48;;;9.68;;
23519;SDS011;11936;50.820;4.336;2023-04-06T14:29:28;13.98;;;10.25;;
23519;SDS011;11936;50.820;4.336;2023-04-06T14:31:53;11.50;;;9.40;;
23519;SDS011;11936;50.820;4.336;2023-04-06T14:34:24;11.57;;;9.30;;
23519;SDS011;11936;50.820;4.336;2023-04-06T14:36:53;13.68;;;9.80;;
23519;SDS011;11936;50.820;4.336;2023-04-06T14:39:20;11.93;;;9.93;;
23519;SDS011;11936;50.820;4.336;2023-04-06T14:41:46;16.35;;;9.73;;
23519;SDS011;11936;50.820;4.336;2023-04-06T14:44:15;16.00;;;11.02;;